Time;durP1;ratioP1;P1;durP2;ratioP2;P2;SDS_P1;SDS_P2;PMS_P1;PMS_P2;Temp;Humidity;BMP_temperature;BMP_pressure;BME280_temperature;BME280_humidity;BME280_pressure;Samples;Min_cycle;Max_cycle;Signal;HPM_P1;HPM_P2
2023/05/29 00:03:28;;;;;;;6.00;4.70;;;19.00;23.10;;;;;;10424952;28;20226;-75
2023/05/29 00:08:33;;;;;;;6.03;4.47;;;18.90;23.10;;;;;;10464193;28;20236;-75
2023/05/29 00:13:36;;;;;;;5.13;4.70;;;18.90;23.70;;;;;;10476356;28;20234;-75
2023/05/29 00:18:45;;;;;;;5.00;4.47;;;18.80;23.40;;;;;;10467126;28;20262;-75
2023/05/29 00:23:50;;;;;;;5.27;4.77;;;18.70;23.20;;;;;;10440965;28;20225;-76
2023/05/29 00:28:53;;;;;;;4.73;4.23;;;18.70;23.70;;;;;;10409403;28;20225;-75
2023/05/29 00:33:56;;;;;;;5.53;4.93;;;18.60;23.50;;;;;;10453390;28;20232;-75
2023/05/29 00:39:01;;;;;;;5.67;4.97;;;18.50;23.60;;;;;;10476145;28;20297;-76
2023/05/29 00:44:04;;;;;;;5.27;4.77;;;18.50;24.10;;;;;;10417404;28;20257;-75
2023/05/29 00:49:08;;;;;;;5.33;4.63;;;18.40;23.80;;;;;;10449960;28;20233;-75
2023/05/29 00:54:15;;;;;;;5.60;5.10;;;18.30;23.80;;;;;;10464525;28;20727;-75
2023/05/29 00:59:21;;;;;;;6.30;5.10;;;18.30;24.20;;;;;;10459470;28;20671;-75
2023/05/29 01:04:25;;;;;;;5.23;4.73;;;18.20;24.10;;;;;;10456166;28;20337;-75
2023/05/29 01:09:30;;;;;;;5.20;4.70;;;18.20;24.10;;;;;;10489045;28;20262;-75
2023/05/29 01:14:42;;;;;;;5.57;4.97;;;18.10;24.00;;;;;;10496860;28;20229;-76
2023/05/29 01:20:05;;;;;;;5.50;5.00;;;18.00;24.30;;;;;;10496216;28;20265;-76
2023/05/29 01:25:18;;;;;;;5.17;4.70;;;17.90;24.80;;;;;;10443074;28;20221;-75
2023/05/29 01:30:24;;;;;;;4.80;4.40;;;17.80;24.80;;;;;;10416621;28;20832;-75
2023/05/29 01:35:28;;;;;;;5.17;4.67;;;17.70;24.60;;;;;;10470798;28;20457;-75
2023/05/29 01:40:31;;;;;;;5.20;4.70;;;17.60;24.20;;;;;;10462800;28;20232;-75
2023/05/29 01:45:37;;;;;;;5.87;5.27;;;17.60;24.20;;;;;;10433429;28;20645;-75
2023/05/29 01:50:43;;;;;;;4.93;4.40;;;17.50;24.90;;;;;;10463436;28;21004;-75
2023/05/29 01:55:47;;;;;;;6.13;5.53;;;17.40;24.60;;;;;;10469372;28;20271;-75
2023/05/29 02:00:52;;;;;;;4.83;4.43;;;17.40;24.70;;;;;;10456675;28;20229;-75
2023/05/29 02:05:56;;;;;;;5.87;5.27;;;17.30;24.80;;;;;;10455629;28;20224;-75
2023/05/29 02:10:59;;;;;;;5.80;5.20;;;17.20;24.70;;;;;;10431147;28;20318;-75
2023/05/29 02:16:04;;;;;;;5.50;4.97;;;17.10;24.70;;;;;;10413277;28;20316;-75
2023/05/29 02:21:07;;;;;;;5.20;4.70;;;17.00;25.00;;;;;;10459521;28;20751;-75
2023/05/29 02:26:10;;;;;;;5.83;4.43;;;16.90;24.80;;;;;;10460722;28;20871;-75
2023/05/29 02:31:15;;;;;;;5.53;5.03;;;16.80;24.80;;;;;;10434262;28;20757;-75
2023/05/29 02:36:18;;;;;;;5.10;4.40;;;16.70;25.40;;;;;;10412704;28;20229;-75
2023/05/29 02:41:22;;;;;;;5.30;4.80;;;16.60;25.10;;;;;;10412788;28;20265;-75
2023/05/29 02:46:26;;;;;;;4.93;4.50;;;16.50;25.20;;;;;;10437100;28;20224;-78
2023/05/29 02:51:29;;;;;;;4.30;3.93;;;16.40;25.50;;;;;;10420508;28;20312;-76
2023/05/29 02:56:34;;;;;;;4.73;4.20;;;16.40;25.40;;;;;;10454334;28;20260;-77
2023/05/29 03:01:39;;;;;;;5.27;4.50;;;16.40;25.60;;;;;;10465230;28;20232;-76
2023/05/29 03:06:42;;;;;;;6.37;4.87;;;16.40;25.90;;;;;;10436937;28;20230;-76
2023/05/29 03:11:47;;;;;;;4.53;4.13;;;16.40;25.70;;;;;;10420969;28;20256;-76
2023/05/29 03:16:52;;;;;;;4.87;4.07;;;16.30;25.50;;;;;;10447544;28;20234;-76
2023/05/29 03:21:56;;;;;;;4.83;4.33;;;16.20;26.00;;;;;;10441314;28;20264;-76
2023/05/29 03:26:59;;;;;;;5.37;4.87;;;16.20;25.80;;;;;;10428714;28;20293;-76
2023/05/29 03:32:04;;;;;;;4.70;4.20;;;16.00;25.90;;;;;;10456709;28;20233;-76
2023/05/29 03:37:07;;;;;;;4.60;4.10;;;15.80;26.30;;;;;;10427644;28;20268;-76
2023/05/29 03:42:10;;;;;;;4.47;4.07;;;15.50;26.10;;;;;;10467028;28;20259;-76
2023/05/29 03:47:15;;;;;;;4.97;4.47;;;15.40;26.40;;;;;;10492574;28;20224;-75
2023/05/29 03:52:18;;;;;;;5.13;4.63;;;15.30;27.00;;;;;;10465264;28;20241;-75
2023/05/29 03:57:21;;;;;;;5.30;4.80;;;15.30;26.80;;;;;;10451753;28;20231;-76
2023/05/29 04:02:26;;;;;;;6.40;4.50;;;15.30;26.90;;;;;;10424667;28;20233;-76
2023/05/29 04:07:29;;;;;;;4.20;3.80;;;15.30;27.20;;;;;;10463232;28;20231;-76
2023/05/29 04:12:32;;;;;;;5.63;4.97;;;15.30;26.90;;;;;;10442006;28;20239;-76
2023/05/29 04:17:37;;;;;;;5.17;4.40;;;15.40;27.10;;;;;;10439017;28;20222;-76
2023/05/29 04:22:40;;;;;;;5.03;4.53;;;15.40;27.50;;;;;;10479599;28;20243;-76
2023/05/29 04:27:48;;;;;;;5.53;5.03;;;15.40;27.10;;;;;;10417679;28;20276;-75
2023/05/29 04:32:53;;;;;;;6.23;5.40;;;15.40;27.40;;;;;;10456582;28;20688;-76
2023/05/29 04:37:56;;;;;;;5.10;4.60;;;15.40;28.00;;;;;;10419055;28;20237;-76
2023/05/29 04:43:00;;;;;;;5.60;5.03;;;15.30;27.70;;;;;;10410778;28;20642;-76
2023/05/29 04:48:05;;;;;;;5.43;4.90;;;15.30;27.90;;;;;;10440380;28;20221;-76
2023/05/29 04:53:08;;;;;;;6.33;5.10;;;15.30;28.60;;;;;;10447473;28;20232;-76
2023/05/29 04:58:13;;;;;;;5.77;4.77;;;15.30;28.20;;;;;;10471660;28;20231;-77
2023/05/29 05:03:19;;;;;;;5.33;4.50;;;15.40;29.10;;;;;;10455040;28;20296;-76
2023/05/29 05:08:22;;;;;;;6.40;4.37;;;15.50;29.00;;;;;;10437494;28;20316;-76
2023/05/29 05:13:25;;;;;;;5.40;4.63;;;15.60;28.60;;;;;;10459615;28;20227;-75
2023/05/29 05:18:30;;;;;;;6.13;4.60;;;15.80;28.70;;;;;;10443848;28;20240;-76
2023/05/29 05:23:33;;;;;;;5.77;4.63;;;15.90;29.00;;;;;;10453938;28;20229;-76
2023/05/29 05:28:55;;;;;;;7.20;4.47;;;16.20;28.90;;;;;;10428436;28;20287;-76
2023/05/29 05:34:00;;;;;;;5.03;4.30;;;16.40;29.10;;;;;;10429393;28;20236;-77
2023/05/29 05:39:03;;;;;;;5.50;4.43;;;16.50;29.60;;;;;;10422155;28;20222;-77
2023/05/29 05:44:06;;;;;;;4.57;4.17;;;16.70;29.40;;;;;;10431405;28;20225;-76
2023/05/29 05:49:11;;;;;;;4.20;3.80;;;16.80;29.50;;;;;;10436749;28;20359;-76
2023/05/29 05:54:14;;;;;;;5.83;4.07;;;17.00;29.90;;;;;;10450136;28;20232;-72
2023/05/29 05:59:17;;;;;;;4.43;3.97;;;17.20;29.50;;;;;;10451075;28;20275;-77
2023/05/29 06:04:22;;;;;;;4.53;4.00;;;17.30;29.40;;;;;;10430453;28;20590;-77
2023/05/29 06:09:25;;;;;;;4.47;3.73;;;17.50;29.50;;;;;;10395570;28;1150128;-73
2023/05/29 06:14:28;;;;;;;4.07;3.67;;;17.70;29.10;;;;;;10437314;28;20505;-72
2023/05/29 06:19:33;;;;;;;4.00;3.60;;;17.90;29.20;;;;;;10438256;28;20311;-73
2023/05/29 06:24:37;;;;;;;5.20;3.80;;;18.10;29.40;;;;;;10445439;28;20220;-73
2023/05/29 06:29:40;;;;;;;4.60;3.40;;;18.30;29.00;;;;;;10436575;28;20241;-74
2023/05/29 06:34:45;;;;;;;3.67;3.27;;;18.50;28.70;;;;;;10439501;28;20425;-73
2023/05/29 06:39:48;;;;;;;4.80;3.73;;;18.70;29.10;;;;;;10440421;28;20324;-73
2023/05/29 06:44:51;;;;;;;3.53;3.20;;;18.90;28.70;;;;;;10450376;28;20308;-78
2023/05/29 06:49:55;;;;;;;3.80;3.33;;;19.10;28.60;;;;;;10450569;28;20258;-78
2023/05/29 06:54:59;;;;;;;3.53;3.17;;;19.40;28.60;;;;;;10469925;28;20316;-78
2023/05/29 07:00:03;;;;;;;4.13;3.30;;;19.60;28.60;;;;;;10439572;28;21240;-78
2023/05/29 07:05:08;;;;;;;4.30;3.20;;;19.70;28.30;;;;;;10439793;28;20233;-78
2023/05/29 07:10:12;;;;;;;3.73;2.90;;;20.00;28.50;;;;;;10439506;28;20259;-77
2023/05/29 07:15:15;;;;;;;3.80;3.10;;;20.20;28.10;;;;;;10450902;28;20300;-77
2023/05/29 07:20:20;;;;;;;3.47;3.00;;;20.40;28.10;;;;;;10444200;28;20228;-77
2023/05/29 07:25:23;;;;;;;3.63;3.33;;;20.60;27.90;;;;;;10448295;28;20312;-77
2023/05/29 07:30:26;;;;;;;3.50;3.20;;;20.80;27.80;;;;;;10444374;28;20248;-77
2023/05/29 07:35:32;;;;;;;4.10;3.20;;;21.00;27.70;;;;;;10435157;28;20233;-78
2023/05/29 07:40:35;;;;;;;3.47;3.10;;;21.20;27.50;;;;;;10450511;28;20308;-77
2023/05/29 07:45:39;;;;;;;4.90;3.03;;;21.40;27.50;;;;;;10437899;28;20225;-78
2023/05/29 07:50:43;;;;;;;3.43;3.13;;;21.70;27.40;;;;;;10441835;28;20228;-78
2023/05/29 07:55:46;;;;;;;3.70;3.07;;;21.80;27.10;;;;;;10439542;28;20300;-79
2023/05/29 08:00:50;;;;;;;5.27;3.90;;;22.00;27.00;;;;;;10432803;28;20235;-77
2023/05/29 08:05:55;;;;;;;4.80;3.53;;;22.30;26.90;;;;;;10445540;28;20447;-78
2023/05/29 08:10:58;;;;;;;3.10;2.80;;;22.50;27.00;;;;;;10440077;28;20934;-74
2023/05/29 08:16:02;;;;;;;3.63;3.30;;;22.70;27.10;;;;;;10439396;28;20483;-74
2023/05/29 08:21:07;;;;;;;3.33;3.03;;;22.90;26.90;;;;;;10434891;28;20221;-73
2023/05/29 08:26:10;;;;;;;4.30;3.50;;;23.10;26.30;;;;;;10439907;28;20310;-74
2023/05/29 08:31:13;;;;;;;3.60;3.30;;;23.30;26.50;;;;;;10436617;28;20598;-73
2023/05/29 08:36:20;;;;;;;4.07;3.40;;;23.50;26.10;;;;;;10439108;28;20232;-76
2023/05/29 08:41:29;;;;;;;3.83;3.27;;;23.70;25.30;;;;;;10430616;28;20316;-77
2023/05/29 08:46:33;;;;;;;3.87;3.53;;;24.00;25.20;;;;;;10445386;28;20227;-77
2023/05/29 08:51:43;;;;;;;3.83;3.43;;;24.20;25.60;;;;;;10429874;28;20228;-76
2023/05/29 08:56:46;;;;;;;4.27;3.47;;;24.40;24.80;;;;;;10436228;28;20235;-77
2023/05/29 09:01:50;;;;;;;3.87;3.43;;;24.60;25.70;;;;;;10431604;28;20249;-76
2023/05/29 09:06:55;;;;;;;4.67;3.40;;;24.80;25.00;;;;;;10435849;28;20733;-77
2023/05/29 09:11:58;;;;;;;4.30;3.60;;;25.00;24.40;;;;;;10436499;28;20336;-77
2023/05/29 09:17:02;;;;;;;4.30;3.90;;;25.30;24.60;;;;;;10436402;28;20639;-76
2023/05/29 09:22:09;;;;;;;4.70;3.90;;;25.50;24.20;;;;;;10430279;28;20229;-77
2023/05/29 09:27:12;;;;;;;5.00;3.70;;;25.70;23.30;;;;;;10430367;28;20303;-75
2023/05/29 09:32:17;;;;;;;4.47;4.03;;;25.80;23.40;;;;;;10442253;28;20770;-75
2023/05/29 09:37:22;;;;;;;4.30;3.90;;;26.00;23.30;;;;;;10448565;28;20231;-75
2023/05/29 09:42:25;;;;;;;4.30;3.90;;;26.10;22.90;;;;;;10437984;28;20232;-75
2023/05/29 09:47:34;;;;;;;3.90;3.60;;;26.30;23.20;;;;;;10440857;28;20240;-75
2023/05/29 09:52:39;;;;;;;4.53;4.00;;;26.40;22.20;;;;;;10440048;28;20851;-75
2023/05/29 09:57:43;;;;;;;4.37;3.97;;;26.50;22.20;;;;;;10437526;28;20256;-75
2023/05/29 10:02:46;;;;;;;4.30;3.90;;;26.70;22.20;;;;;;10442776;28;20237;-75
2023/05/29 10:07:55;;;;;;;4.50;3.87;;;26.80;21.90;;;;;;10438591;28;20256;-75
2023/05/29 10:12:58;;;;;;;4.00;3.60;;;26.90;21.00;;;;;;10441744;28;20259;-75
2023/05/29 10:18:07;;;;;;;3.83;3.40;;;27.00;21.60;;;;;;10444927;28;20402;-75
2023/05/29 10:23:13;;;;;;;4.20;3.60;;;27.20;21.00;;;;;;10442557;28;20262;-75
2023/05/29 10:28:17;;;;;;;4.17;3.77;;;27.40;21.10;;;;;;10436901;28;20257;-75
2023/05/29 10:33:56;;;;;;;4.17;3.77;;;27.50;21.30;;;;;;10442009;28;20253;-75
2023/05/29 10:39:01;;;;;;;4.10;3.50;;;27.60;20.50;;;;;;10430383;28;20255;-75
2023/05/29 10:44:43;;;;;;;3.83;3.40;;;27.60;19.90;;;;;;10432183;28;20233;-75
2023/05/29 10:49:51;;;;;;;4.07;3.10;;;27.70;20.00;;;;;;10439944;28;20852;-75
2023/05/29 10:54:57;;;;;;;4.00;3.60;;;27.60;19.90;;;;;;10436133;28;20227;-75
2023/05/29 11:00:05;;;;;;;4.10;3.70;;;27.60;19.90;;;;;;10435059;28;20622;-71
2023/05/29 11:05:23;;;;;;;4.13;3.73;;;27.70;19.90;;;;;;10441433;28;20224;-72
2023/05/29 11:11:01;;;;;;;3.83;3.50;;;27.80;19.70;;;;;;10437894;28;20853;-71
2023/05/29 11:16:13;;;;;;;3.83;3.40;;;27.80;20.00;;;;;;10272944;28;20691;-71
2023/05/29 11:21:27;;;;;;;3.87;3.50;;;27.80;19.20;;;;;;10393388;28;20290;-72
2023/05/29 11:26:32;;;;;;;3.77;3.47;;;27.80;18.90;;;;;;10439573;28;20275;-71
2023/05/29 11:31:36;;;;;;;3.90;3.60;;;27.90;19.30;;;;;;10437071;28;20254;-76
2023/05/29 11:36:40;;;;;;;3.70;3.40;;;27.90;19.40;;;;;;10454244;28;20229;-76
2023/05/29 11:41:45;;;;;;;3.83;3.30;;;27.90;19.00;;;;;;10444395;28;20709;-76
2023/05/29 11:47:02;;;;;;;3.90;3.40;;;28.00;18.40;;;;;;10447377;28;20277;-76
2023/05/29 11:52:10;;;;;;;3.27;2.97;;;27.90;18.00;;;;;;10448859;28;20221;-76
2023/05/29 11:57:21;;;;;;;3.60;3.30;;;27.90;17.90;;;;;;10432156;28;20254;-76
2023/05/29 12:02:25;;;;;;;4.40;3.10;;;28.00;18.20;;;;;;10445920;28;20263;-76
2023/05/29 12:07:29;;;;;;;3.30;3.00;;;28.00;18.40;;;;;;10448797;28;20225;-76
2023/05/29 12:12:35;;;;;;;4.50;3.27;;;28.00;18.40;;;;;;10448208;28;20924;-76
2023/05/29 12:17:38;;;;;;;3.20;3.00;;;28.10;18.20;;;;;;10447776;28;20688;-76
2023/05/29 12:22:43;;;;;;;3.50;3.20;;;28.10;18.50;;;;;;10440203;28;20645;-76
2023/05/29 12:27:49;;;;;;;3.77;3.03;;;28.20;18.20;;;;;;10442446;28;20225;-76
2023/05/29 12:32:54;;;;;;;3.27;3.00;;;28.30;17.90;;;;;;10445154;28;20255;-76
2023/05/29 12:37:58;;;;;;;3.20;2.90;;;28.30;17.90;;;;;;10440970;28;20237;-76
2023/05/29 12:43:04;;;;;;;5.53;3.30;;;28.30;17.80;;;;;;10438388;28;20949;-77
2023/05/29 12:48:09;;;;;;;3.20;3.00;;;28.30;17.10;;;;;;10438694;28;20233;-77
2023/05/29 12:53:14;;;;;;;2.90;2.70;;;28.30;17.30;;;;;;10444008;28;20869;-76
2023/05/29 12:58:20;;;;;;;3.00;2.80;;;28.20;17.60;;;;;;10427942;28;20792;-77
2023/05/29 13:03:24;;;;;;;3.27;2.97;;;28.30;17.00;;;;;;10443920;28;20280;-77
2023/05/29 13:08:27;;;;;;;2.67;2.47;;;28.40;17.60;;;;;;10447442;28;20657;-77
2023/05/29 13:13:32;;;;;;;2.93;2.73;;;28.30;16.80;;;;;;10451941;28;20304;-77
2023/05/29 13:18:35;;;;;;;2.90;2.70;;;28.30;16.30;;;;;;10436716;28;20251;-77
2023/05/29 13:23:39;;;;;;;3.40;2.67;;;28.30;16.50;;;;;;10436411;28;20217;-78
2023/05/29 13:28:44;;;;;;;2.90;2.70;;;28.40;16.60;;;;;;10452669;28;20307;-77
2023/05/29 13:33:47;;;;;;;2.90;2.70;;;28.50;16.50;;;;;;10452921;28;21042;-77
2023/05/29 13:38:51;;;;;;;3.10;2.90;;;28.50;16.40;;;;;;10451860;28;20278;-77
2023/05/29 13:43:55;;;;;;;5.80;2.83;;;28.60;16.20;;;;;;10443296;28;20701;-78
2023/05/29 13:48:59;;;;;;;2.93;2.67;;;28.60;16.00;;;;;;10442861;28;20232;-77
2023/05/29 13:54:02;;;;;;;2.83;2.60;;;28.60;16.20;;;;;;10449796;28;20229;-72
2023/05/29 13:59:07;;;;;;;3.73;2.87;;;28.60;15.90;;;;;;10446031;28;20245;-71
2023/05/29 14:04:10;;;;;;;2.80;2.60;;;28.70;15.70;;;;;;10442423;28;20924;-78
2023/05/29 14:09:14;;;;;;;3.17;2.80;;;28.70;15.80;;;;;;10446947;28;20228;-77
2023/05/29 14:14:18;;;;;;;3.00;2.80;;;28.70;15.40;;;;;;10445506;28;20236;-72
2023/05/29 14:19:22;;;;;;;2.50;2.30;;;28.70;15.40;;;;;;10444203;28;20265;-72
2023/05/29 14:24:25;;;;;;;2.77;2.57;;;28.60;15.30;;;;;;10448399;28;20279;-77
2023/05/29 14:29:30;;;;;;;2.60;2.40;;;28.60;15.20;;;;;;10440728;28;20248;-77
2023/05/29 14:34:33;;;;;;;2.90;2.70;;;28.70;14.70;;;;;;10446148;28;20225;-73
2023/05/29 14:39:37;;;;;;;3.07;2.83;;;28.70;14.70;;;;;;10441017;28;20228;-76
2023/05/29 14:44:41;;;;;;;2.80;2.60;;;28.70;14.30;;;;;;10441749;28;20241;-73
2023/05/29 14:49:45;;;;;;;2.60;2.40;;;28.70;14.30;;;;;;10445054;28;20224;-73
2023/05/29 14:54:48;;;;;;;6.10;3.07;;;28.70;14.40;;;;;;10441104;28;20224;-71
2023/05/29 14:59:53;;;;;;;2.70;2.50;;;28.80;14.20;;;;;;10439447;28;20292;-72
2023/05/29 15:04:56;;;;;;;3.30;3.00;;;28.80;14.30;;;;;;10443317;28;20242;-73
2023/05/29 15:10:00;;;;;;;2.87;2.60;;;28.80;14.30;;;;;;10443208;28;20278;-73
2023/05/29 15:15:06;;;;;;;2.60;2.40;;;28.80;14.40;;;;;;10440381;28;20323;-75
2023/05/29 15:20:11;;;;;;;3.10;2.80;;;28.80;14.00;;;;;;10440957;28;20718;-75
2023/05/29 15:25:14;;;;;;;3.10;2.70;;;28.80;14.20;;;;;;10433869;28;20233;-76
2023/05/29 15:30:21;;;;;;;2.93;2.73;;;28.80;14.20;;;;;;10436459;28;20225;-75
2023/05/29 15:35:24;;;;;;;3.07;2.80;;;28.80;13.30;;;;;;10436041;28;20233;-75
2023/05/29 15:40:28;;;;;;;2.53;2.33;;;28.80;13.70;;;;;;10431435;28;20233;-77
2023/05/29 15:45:32;;;;;;;2.93;2.73;;;28.80;13.80;;;;;;10445043;28;20247;-75
2023/05/29 15:50:36;;;;;;;2.80;2.60;;;28.90;13.10;;;;;;10445237;28;20897;-76
2023/05/29 15:55:39;;;;;;;2.77;2.53;;;28.90;13.20;;;;;;10435218;28;20231;-77
2023/05/29 16:00:44;;;;;;;3.33;2.60;;;29.00;13.20;;;;;;10437435;28;20939;-78
2023/05/29 16:05:48;;;;;;;3.67;3.37;;;29.00;12.80;;;;;;10442032;28;20236;-72
2023/05/29 16:10:51;;;;;;;3.60;3.13;;;29.10;13.10;;;;;;10401777;28;20256;-72
2023/05/29 16:15:56;;;;;;;2.80;2.60;;;29.10;12.80;;;;;;10416369;28;20228;-76
2023/05/29 16:21:00;;;;;;;2.80;2.60;;;29.20;12.10;;;;;;10438723;28;20237;-78
2023/05/29 16:26:04;;;;;;;2.70;2.50;;;29.30;12.60;;;;;;10437566;28;20229;-71
2023/05/29 16:31:08;;;;;;;3.00;2.70;;;29.30;12.50;;;;;;10440925;28;20233;-72
2023/05/29 16:36:12;;;;;;;3.00;2.73;;;29.30;12.40;;;;;;10441553;28;20232;-72
2023/05/29 16:41:15;;;;;;;3.10;2.90;;;29.30;12.90;;;;;;10447763;28;20643;-72
2023/05/29 16:46:21;;;;;;;2.87;2.67;;;29.40;12.60;;;;;;10449701;28;20228;-72
2023/05/29 16:51:25;;;;;;;3.10;2.80;;;29.40;12.30;;;;;;10449576;28;20259;-72
2023/05/29 16:56:28;;;;;;;3.20;3.00;;;29.40;12.40;;;;;;10449193;28;20235;-72
2023/05/29 17:01:33;;;;;;;3.40;3.10;;;29.40;12.60;;;;;;10448973;28;20286;-72
2023/05/29 17:06:36;;;;;;;3.50;3.20;;;29.40;12.50;;;;;;10449097;28;20228;-72
2023/05/29 17:11:40;;;;;;;3.27;3.07;;;29.50;12.70;;;;;;10448085;28;20262;-72
2023/05/29 17:16:44;;;;;;;3.30;3.10;;;29.40;12.80;;;;;;10448227;28;20713;-72
2023/05/29 17:21:48;;;;;;;3.43;3.17;;;29.40;12.80;;;;;;10448220;28;20280;-71
2023/05/29 17:26:51;;;;;;;3.37;2.93;;;29.50;13.00;;;;;;10448029;28;20761;-71
2023/05/29 17:31:56;;;;;;;3.13;2.90;;;29.40;13.20;;;;;;10448262;28;20760;-71
2023/05/29 17:37:00;;;;;;;3.33;3.10;;;29.40;13.00;;;;;;10448044;28;20604;-71
2023/05/29 17:42:05;;;;;;;3.23;3.03;;;29.50;13.20;;;;;;10447077;28;20252;-71
2023/05/29 17:47:11;;;;;;;3.47;3.17;;;29.50;13.00;;;;;;10447743;28;20717;-71
2023/05/29 17:52:14;;;;;;;3.57;3.20;;;29.40;12.90;;;;;;10446951;28;20298;-70
2023/05/29 17:57:17;;;;;;;3.10;2.90;;;29.30;13.50;;;;;;10480763;28;20644;-71
2023/05/29 18:02:22;;;;;;;3.20;3.00;;;29.30;13.60;;;;;;10488702;28;20232;-70
2023/05/29 18:07:25;;;;;;;3.20;3.00;;;29.20;14.00;;;;;;10488004;28;20225;-71
2023/05/29 18:12:29;;;;;;;3.60;3.30;;;29.10;14.20;;;;;;10447093;28;20232;-72
2023/05/29 18:17:48;;;;;;;3.53;3.20;;;28.90;14.00;;;;;;10440988;28;20644;-72
2023/05/29 18:22:51;;;;;;;3.50;3.20;;;28.70;14.00;;;;;;10441429;28;20239;-72
2023/05/29 18:27:55;;;;;;;3.17;2.57;;;28.50;14.10;;;;;;10442283;28;20229;-72
2023/05/29 18:33:01;;;;;;;3.20;2.90;;;28.40;14.20;;;;;;10445994;28;20271;-80
2023/05/29 18:38:05;;;;;;;3.77;2.67;;;28.20;14.40;;;;;;10450851;28;20600;-77
2023/05/29 18:43:09;;;;;;;2.70;2.50;;;28.10;14.50;;;;;;10455526;28;20224;-78
2023/05/29 18:48:15;;;;;;;3.30;2.83;;;28.00;14.60;;;;;;10449644;28;20235;-78
2023/05/29 18:53:18;;;;;;;3.10;2.80;;;27.90;14.50;;;;;;10443799;28;20228;-77
2023/05/29 18:58:23;;;;;;;2.70;2.40;;;27.80;14.70;;;;;;10443981;28;20263;-78
2023/05/29 19:03:28;;;;;;;2.97;2.70;;;27.70;15.10;;;;;;10422201;28;20326;-77
2023/05/29 19:08:31;;;;;;;3.03;2.77;;;27.50;15.30;;;;;;10422449;28;20241;-78
2023/05/29 19:13:34;;;;;;;3.40;2.60;;;27.30;15.30;;;;;;10422833;28;20295;-77
2023/05/29 19:18:39;;;;;;;2.77;2.57;;;27.20;15.30;;;;;;10431581;28;20221;-78
2023/05/29 19:23:42;;;;;;;3.93;2.43;;;27.00;15.40;;;;;;10426826;28;20289;-78
2023/05/29 19:28:47;;;;;;;2.70;2.50;;;26.70;15.40;;;;;;10421493;28;20308;-77
2023/05/29 19:33:53;;;;;;;3.07;2.77;;;26.50;15.50;;;;;;10422022;28;20232;-76
2023/05/29 19:38:58;;;;;;;2.93;2.73;;;26.40;16.00;;;;;;10425077;28;20236;-76
2023/05/29 19:44:03;;;;;;;2.90;2.70;;;26.10;15.80;;;;;;10422604;28;20248;-73
2023/05/29 19:49:08;;;;;;;3.80;2.80;;;26.00;16.20;;;;;;10424649;28;20308;-73
2023/05/29 19:54:12;;;;;;;3.20;2.90;;;25.90;16.50;;;;;;10423457;28;20745;-73
2023/05/29 19:59:15;;;;;;;3.37;3.03;;;25.70;16.20;;;;;;10419524;28;21164;-73
2023/05/29 20:04:20;;;;;;;2.77;2.50;;;25.60;16.50;;;;;;10425053;28;20260;-73
2023/05/29 20:09:24;;;;;;;2.60;2.40;;;25.40;16.80;;;;;;10436557;28;20221;-73
2023/05/29 20:14:27;;;;;;;3.10;2.87;;;25.20;16.90;;;;;;10442248;28;20229;-73
2023/05/29 20:19:32;;;;;;;3.30;2.60;;;25.10;16.90;;;;;;10443420;28;20311;-73
2023/05/29 20:24:35;;;;;;;3.00;2.80;;;24.90;17.20;;;;;;10447745;28;20228;-73
2023/05/29 20:29:39;;;;;;;2.97;2.70;;;24.80;17.20;;;;;;10438088;28;20229;-73
2023/05/29 20:34:44;;;;;;;3.40;3.10;;;24.70;17.40;;;;;;10446335;28;20248;-73
2023/05/29 20:39:48;;;;;;;3.27;3.00;;;24.50;17.70;;;;;;10444640;28;20628;-73
2023/05/29 20:44:51;;;;;;;3.70;3.40;;;24.50;17.60;;;;;;10442514;28;20307;-72
2023/05/29 20:49:56;;;;;;;3.13;2.83;;;24.30;17.80;;;;;;10446294;28;20257;-73
2023/05/29 20:55:00;;;;;;;3.43;2.93;;;24.20;18.00;;;;;;10440075;28;20658;-73
2023/05/29 21:00:06;;;;;;;3.83;3.00;;;24.10;17.90;;;;;;10439664;28;20251;-74
2023/05/29 21:05:11;;;;;;;3.27;2.97;;;23.90;17.80;;;;;;10437019;28;20327;-72
2023/05/29 21:10:15;;;;;;;3.63;2.90;;;23.70;17.70;;;;;;10438705;28;20260;-72
2023/05/29 21:15:18;;;;;;;3.50;3.20;;;23.60;17.60;;;;;;10443795;28;20731;-72
2023/05/29 21:20:24;;;;;;;3.67;3.10;;;23.40;18.00;;;;;;10441243;28;20733;-72
2023/05/29 21:25:27;;;;;;;3.80;2.83;;;23.30;18.60;;;;;;10447393;28;20256;-72
2023/05/29 21:30:31;;;;;;;3.10;2.80;;;23.20;18.20;;;;;;10446354;28;20283;-72
2023/05/29 21:35:37;;;;;;;3.70;2.80;;;23.00;18.50;;;;;;10445876;28;20225;-72
2023/05/29 21:40:40;;;;;;;3.40;3.10;;;23.00;18.90;;;;;;10449783;28;20756;-72
2023/05/29 21:45:44;;;;;;;3.10;2.80;;;22.80;18.70;;;;;;10452945;28;20243;-72
2023/05/29 21:50:48;;;;;;;3.50;3.20;;;22.70;18.80;;;;;;10450186;28;20979;-72
2023/05/29 21:55:52;;;;;;;3.20;2.90;;;22.60;19.30;;;;;;10446041;28;20275;-72
2023/05/29 22:00:55;;;;;;;3.23;2.90;;;22.50;19.20;;;;;;10445329;28;20255;-72
2023/05/29 22:06:02;;;;;;;4.13;2.83;;;22.30;19.10;;;;;;10452972;28;20229;-72
2023/05/29 22:11:06;;;;;;;3.47;3.13;;;22.20;19.50;;;;;;10441580;28;20225;-72
2023/05/29 22:16:09;;;;;;;4.47;3.27;;;22.00;19.20;;;;;;10445549;28;20229;-72
2023/05/29 22:21:14;;;;;;;3.40;3.03;;;21.80;19.20;;;;;;10446497;28;20597;-72
2023/05/29 22:26:20;;;;;;;3.27;2.97;;;21.60;20.10;;;;;;10449356;28;20819;-72
2023/05/29 22:31:23;;;;;;;4.23;3.10;;;21.40;19.60;;;;;;10448053;28;20371;-71
2023/05/29 22:36:28;;;;;;;3.67;3.33;;;21.30;19.50;;;;;;10445753;28;21083;-72
2023/05/29 22:41:31;;;;;;;3.90;2.90;;;21.20;20.00;;;;;;10440661;28;20232;-72
2023/05/29 22:46:36;;;;;;;3.10;2.83;;;21.10;19.80;;;;;;10442910;28;20224;-72
2023/05/29 22:51:44;;;;;;;3.47;3.17;;;21.00;19.80;;;;;;10448339;28;20235;-71
2023/05/29 22:56:47;;;;;;;3.20;2.90;;;20.90;20.00;;;;;;10435203;28;20237;-72
2023/05/29 23:01:51;;;;;;;3.83;3.20;;;20.80;19.70;;;;;;10439663;28;20585;-72
2023/05/29 23:06:56;;;;;;;3.53;3.10;;;20.70;19.70;;;;;;10449677;28;20248;-72
2023/05/29 23:12:00;;;;;;;4.07;3.03;;;20.50;19.90;;;;;;10441610;28;20232;-72
2023/05/29 23:17:03;;;;;;;3.13;2.90;;;20.30;20.00;;;;;;10442135;28;20775;-72
2023/05/29 23:22:08;;;;;;;3.40;3.07;;;20.20;20.40;;;;;;10452742;28;20893;-72
2023/05/29 23:27:11;;;;;;;3.50;3.20;;;20.10;20.60;;;;;;10442455;28;20330;-72
2023/05/29 23:32:15;;;;;;;5.33;3.37;;;20.00;20.40;;;;;;10445481;28;20225;-71
2023/05/29 23:37:20;;;;;;;3.17;2.90;;;19.80;20.50;;;;;;10450135;28;20225;-72
2023/05/29 23:42:23;;;;;;;3.23;2.93;;;19.70;21.10;;;;;;10446981;28;20224;-72
2023/05/29 23:47:27;;;;;;;2.90;2.70;;;19.70;21.00;;;;;;10444372;28;20229;-72
2023/05/29 23:52:32;;;;;;;3.50;3.20;;;19.70;20.70;;;;;;10445368;28;20237;-72
2023/05/29 23:57:35;;;;;;;3.57;3.13;;;19.70;20.90;;;;;;10443738;28;20790;-71
